Time;durP1;ratioP1;P1;durP2;ratioP2;P2;SDS_P1;SDS_P2;PMS_P1;PMS_P2;Temp;Humidity;BMP_temperature;BMP_pressure;BME280_temperature;BME280_humidity;BME280_pressure;Samples;Min_cycle;Max_cycle;Signal;HPM_P1;HPM_P2
2022/08/15 00:01:30;;;;;;;3.75;2.58;;;22.90;80.20;;;;;;4912941;29;20042;-45
2022/08/15 00:04:35;;;;;;;3.33;2.78;;;23.00;79.70;;;;;;4913008;29;20055;-50
2022/08/15 00:07:40;;;;;;;2.90;2.65;;;23.00;79.30;;;;;;4913134;29;20043;-46
2022/08/15 00:11:15;;;;;;;6.50;2.65;;;23.00;79.50;;;;;;4912630;29;20059;-45
2022/08/15 00:14:24;;;;;;;2.90;2.50;;;23.10;79.40;;;;;;4912824;29;20055;-46
2022/08/15 00:17:29;;;;;;;3.97;3.17;;;23.20;80.60;;;;;;4912729;29;20518;-48
2022/08/15 00:20:37;;;;;;;5.20;2.70;;;23.10;80.20;;;;;;4912903;29;20439;-48
2022/08/15 00:23:41;;;;;;;3.40;2.60;;;23.00;79.70;;;;;;4913109;29;20059;-44
2022/08/15 00:26:48;;;;;;;2.67;2.35;;;22.90;79.70;;;;;;4912423;29;20039;-46
2022/08/15 00:29:53;;;;;;;3.30;3.00;;;22.80;80.50;;;;;;4912843;29;20059;-45
2022/08/15 00:36:39;;;;;;;4.20;2.33;;;22.50;82.70;;;;;;4912810;29;20051;-44
2022/08/15 00:39:44;;;;;;;6.65;2.75;;;22.40;82.40;;;;;;4912650;29;20051;-46
2022/08/15 00:43:06;;;;;;;4.25;2.83;;;22.50;82.00;;;;;;4912359;29;20521;-50
2022/08/15 00:46:29;;;;;;;4.07;3.00;;;22.50;81.70;;;;;;4911477;29;20047;-45
2022/08/15 00:49:35;;;;;;;4.15;2.72;;;22.50;81.40;;;;;;4912437;29;20059;-46
2022/08/15 00:56:04;;;;;;;4.65;2.70;;;22.50;81.50;;;;;;4922793;29;20050;-47
2022/08/15 00:59:32;;;;;;;2.45;2.25;;;22.60;81.00;;;;;;4911881;29;20426;-46
2022/08/15 01:02:57;;;;;;;3.25;2.90;;;22.60;80.80;;;;;;4912407;29;20043;-45
2022/08/15 01:06:03;;;;;;;6.18;2.75;;;22.50;80.50;;;;;;4912747;29;20238;-44
2022/08/15 01:09:10;;;;;;;2.90;2.45;;;22.50;80.60;;;;;;4911474;29;20054;-50
2022/08/15 01:12:33;;;;;;;3.17;2.60;;;22.50;80.70;;;;;;4912263;29;20530;-45
2022/08/15 01:19:13;;;;;;;3.75;2.80;;;22.10;83.20;;;;;;4911780;29;20454;-46
2022/08/15 01:22:32;;;;;;;5.43;2.63;;;22.00;84.30;;;;;;4911016;29;20063;-46
2022/08/15 01:25:57;;;;;;;3.60;2.78;;;21.90;85.00;;;;;;4911069;29;20054;-44
2022/08/15 01:29:19;;;;;;;4.55;2.90;;;21.50;87.10;;;;;;4911026;29;20111;-45
2022/08/15 01:32:25;;;;;;;5.45;2.90;;;21.20;90.20;;;;;;4910702;28;20055;-48
2022/08/15 01:35:30;;;;;;;3.33;2.60;;;21.10;91.10;;;;;;4910936;28;20063;-48
2022/08/15 01:38:39;;;;;;;3.63;2.92;;;21.00;91.30;;;;;;4909317;28;20052;-45
2022/08/15 01:41:54;;;;;;;4.60;2.92;;;21.00;92.10;;;;;;4911569;29;20124;-45
2022/08/15 01:45:06;;;;;;;2.97;2.67;;;20.90;92.90;;;;;;4910729;29;20043;-48
2022/08/15 01:52:01;;;;;;;4.00;3.15;;;20.80;94.40;;;;;;4921277;29;20059;-46
2022/08/15 01:55:07;;;;;;;4.68;3.17;;;20.70;95.60;;;;;;4910430;29;20067;-45
2022/08/15 01:58:12;;;;;;;5.97;3.60;;;20.70;95.90;;;;;;4910270;28;20047;-45
2022/08/15 02:01:20;;;;;;;6.50;3.10;;;20.70;96.80;;;;;;4911366;29;20035;-46
2022/08/15 02:04:31;;;;;;;5.00;3.60;;;20.60;97.00;;;;;;4910423;29;20047;-44
2022/08/15 02:07:35;;;;;;;5.80;3.43;;;20.70;97.30;;;;;;4921403;29;20234;-45
2022/08/15 02:10:43;;;;;;;5.22;3.28;;;20.70;97.50;;;;;;4911435;29;20291;-49
2022/08/15 02:14:07;;;;;;;3.88;3.08;;;20.60;97.70;;;;;;4911201;29;20055;-45
2022/08/15 02:17:32;;;;;;;5.45;3.33;;;20.70;97.70;;;;;;4911138;29;20051;-45
2022/08/15 02:24:39;;;;;;;6.07;3.05;;;20.50;99.40;;;;;;4904207;29;20047;-46
2022/08/15 02:28:01;;;;;;;5.35;3.25;;;20.50;99.20;;;;;;4910199;29;20043;-45
2022/08/15 02:31:10;;;;;;;6.18;3.25;;;20.50;99.00;;;;;;4910127;28;20534;-49
2022/08/15 02:34:15;;;;;;;4.65;3.33;;;20.50;98.30;;;;;;4910093;28;20051;-46
2022/08/15 02:38:04;;;;;;;3.05;2.72;;;20.50;98.00;;;;;;4910632;29;20051;-45
2022/08/15 02:41:09;;;;;;;4.68;3.30;;;20.60;98.00;;;;;;4910117;28;20237;-44
2022/08/15 02:47:44;;;;;;;6.28;3.38;;;20.50;98.40;;;;;;4920853;29;20055;-45
2022/08/15 02:51:09;;;;;;;3.40;3.05;;;20.40;99.10;;;;;;4913784;29;20051;-45
2022/08/15 02:54:17;;;;;;;4.97;4.28;;;20.30;99.80;;;;;;4912645;28;20055;-45
2022/08/15 02:57:21;;;;;;;3.30;3.00;;;20.20;99.90;;;;;;4913452;28;20325;-47
2022/08/15 03:00:27;;;;;;;5.47;3.22;;;20.10;99.90;;;;;;4913238;29;20442;-49
2022/08/15 03:03:37;;;;;;;4.38;3.38;;;20.10;99.90;;;;;;4912703;29;20040;-44
2022/08/15 03:06:43;;;;;;;4.18;3.70;;;20.00;99.90;;;;;;4913238;28;20059;-45
2022/08/15 03:09:47;;;;;;;4.35;3.50;;;19.90;99.90;;;;;;4923553;29;20529;-47
2022/08/15 03:13:13;;;;;;;3.50;3.20;;;19.80;99.90;;;;;;4912924;28;20518;-45
2022/08/15 03:16:18;;;;;;;7.57;3.67;;;19.80;99.90;;;;;;4912439;28;20055;-44
2022/08/15 03:19:42;;;;;;;4.05;3.33;;;19.80;99.90;;;;;;4912592;28;20072;-44
2022/08/15 03:22:50;;;;;;;4.88;3.88;;;19.70;99.90;;;;;;4912722;28;20047;-44
2022/08/15 03:26:01;;;;;;;5.18;3.30;;;19.70;99.90;;;;;;4913139;29;20510;-44
2022/08/15 03:29:26;;;;;;;5.78;3.50;;;19.60;99.90;;;;;;4913899;29;20055;-43
2022/08/15 03:36:11;;;;;;;4.03;3.63;;;19.50;99.90;;;;;;4914108;29;20063;-45
2022/08/15 03:39:17;;;;;;;4.10;3.70;;;19.40;99.90;;;;;;4923098;29;20494;-46
2022/08/15 03:42:21;;;;;;;5.97;3.97;;;19.40;99.90;;;;;;4912870;29;20047;-45
2022/08/15 03:45:45;;;;;;;7.15;3.83;;;19.40;99.90;;;;;;4912182;28;20502;-45
2022/08/15 03:49:10;;;;;;;6.20;4.13;;;19.40;99.90;;;;;;4912935;29;20218;-46
2022/08/15 03:52:17;;;;;;;6.25;3.50;;;19.40;99.90;;;;;;4912653;29;20412;-48
2022/08/15 03:55:41;;;;;;;5.68;4.28;;;19.30;99.90;;;;;;4912049;28;20067;-45
2022/08/15 03:58:47;;;;;;;7.45;3.88;;;19.30;99.90;;;;;;4913011;29;20071;-51
2022/08/15 04:02:12;;;;;;;6.18;3.92;;;19.20;99.90;;;;;;4911588;29;20039;-47
2022/08/15 04:05:36;;;;;;;6.78;4.25;;;19.20;99.90;;;;;;4911671;28;20399;-46
2022/08/15 04:08:42;;;;;;;6.38;4.10;;;19.10;99.90;;;;;;4923238;29;20047;-44
2022/08/15 04:15:29;;;;;;;8.27;4.43;;;19.00;99.90;;;;;;4922956;29;20047;-43
2022/08/15 04:18:33;;;;;;;7.35;4.35;;;18.90;99.90;;;;;;4913185;29;20055;-43
2022/08/15 04:21:38;;;;;;;6.07;4.18;;;18.80;99.90;;;;;;4912086;29;20399;-43
2022/08/15 04:24:42;;;;;;;4.38;3.97;;;18.80;99.90;;;;;;4912505;29;20055;-47
2022/08/15 04:27:49;;;;;;;4.72;4.20;;;18.80;99.90;;;;;;4912775;29;20052;-44
2022/08/15 04:30:53;;;;;;;4.30;3.83;;;18.90;99.90;;;;;;4912498;29;20047;-45
2022/08/15 04:33:57;;;;;;;7.72;3.90;;;18.90;99.90;;;;;;4911588;29;20059;-43
2022/08/15 04:37:04;;;;;;;4.32;3.67;;;18.90;99.90;;;;;;4912041;29;20411;-45
2022/08/15 04:40:14;;;;;;;6.97;4.05;;;19.00;99.90;;;;;;4911326;29;20052;-46
2022/08/15 04:43:40;;;;;;;7.20;4.40;;;19.00;99.90;;;;;;4912419;29;20051;-45
2022/08/15 04:46:46;;;;;;;3.95;3.55;;;19.00;99.90;;;;;;4911550;29;20040;-45
2022/08/15 04:49:50;;;;;;;7.68;4.57;;;19.10;99.90;;;;;;4911288;29;20052;-43
2022/08/15 04:52:55;;;;;;;6.53;4.45;;;19.10;99.90;;;;;;4911871;29;20055;-46
2022/08/15 04:56:06;;;;;;;4.30;3.60;;;19.10;99.90;;;;;;4911576;29;20149;-45
2022/08/15 04:59:32;;;;;;;5.10;3.95;;;19.20;99.90;;;;;;5015320;22;20418;-52
2022/08/15 05:02:55;;;;;;;5.53;3.95;;;19.30;99.90;;;;;;5070636;28;20039;-50
2022/08/15 05:06:03;;;;;;;6.57;4.00;;;19.40;99.90;;;;;;5070162;28;20043;-50
2022/08/15 05:09:07;;;;;;;6.30;4.13;;;19.50;99.90;;;;;;5070330;28;20055;-49
2022/08/15 05:12:12;;;;;;;4.72;3.95;;;19.50;99.90;;;;;;5070002;28;20048;-52
2022/08/15 05:15:19;;;;;;;7.82;5.07;;;19.40;99.90;;;;;;5069515;28;20055;-49
2022/08/15 05:18:26;;;;;;;6.32;3.97;;;20.20;99.90;;;;;;5070042;28;20439;-49
2022/08/15 05:21:31;;;;;;;5.78;3.42;;;22.40;99.90;;;;;;5070624;28;20399;-50
2022/08/15 05:24:54;;;;;;;3.88;3.20;;;24.40;99.90;;;;;;5070132;28;20534;-51
2022/08/15 05:27:58;;;;;;;3.28;2.97;;;26.80;99.90;;;;;;5069878;28;20348;-49
2022/08/15 05:31:05;;;;;;;4.88;3.92;;;27.90;98.20;;;;;;5069733;28;20533;-49
2022/08/15 05:34:10;;;;;;;7.13;3.72;;;28.70;96.10;;;;;;5070719;28;20510;-50
2022/08/15 05:37:25;;;;;;;8.15;3.40;;;28.00;94.90;;;;;;5069742;28;20035;-52
2022/08/15 05:40:40;;;;;;;4.15;3.55;;;28.10;94.30;;;;;;5069783;28;20047;-52
2022/08/15 05:44:14;;;;;;;9.73;3.33;;;27.40;94.50;;;;;;5069815;28;20059;-50
2022/08/15 05:47:33;;;;;;;3.92;2.55;;;28.30;94.20;;;;;;5069828;28;20051;-50
2022/08/15 05:50:57;;;;;;;8.77;3.10;;;30.00;93.10;;;;;;5069517;28;20047;-51
2022/08/15 05:54:32;;;;;;;5.95;3.28;;;30.30;90.90;;;;;;5069584;28;20051;-49
2022/08/15 05:58:22;;;;;;;5.13;3.17;;;28.50;92.20;;;;;;5070509;28;20048;-53
2022/08/15 06:01:45;;;;;;;4.75;3.40;;;27.10;92.90;;;;;;5069270;28;20060;-51
2022/08/15 06:05:03;;;;;;;5.30;3.10;;;27.20;93.50;;;;;;5068955;28;20411;-49
2022/08/15 06:08:14;;;;;;;8.65;3.08;;;27.60;93.10;;;;;;5069437;28;20060;-49
2022/08/15 06:11:37;;;;;;;5.28;2.95;;;28.10;92.70;;;;;;5069232;28;20517;-49
2022/08/15 06:15:06;;;;;;;3.15;2.50;;;29.40;91.60;;;;;;5069210;28;20059;-49
2022/08/15 06:18:33;;;;;;;4.18;2.45;;;30.40;90.50;;;;;;5069471;28;20043;-50
2022/08/15 06:22:05;;;;;;;3.58;2.50;;;31.00;90.00;;;;;;5068918;28;20048;-53
2022/08/15 06:25:36;;;;;;;3.63;2.70;;;31.80;87.40;;;;;;5068423;28;20115;-50
2022/08/15 06:29:01;;;;;;;5.90;2.83;;;31.20;86.70;;;;;;5069130;28;20055;-52
2022/08/15 06:32:12;;;;;;;6.13;2.83;;;29.60;88.40;;;;;;5068645;28;20063;-53
2022/08/15 06:36:04;;;;;;;4.07;2.60;;;28.80;89.40;;;;;;5069722;28;20040;-49
2022/08/15 06:39:24;;;;;;;3.97;2.80;;;27.90;90.70;;;;;;5050133;28;20040;-50
2022/08/15 06:42:35;;;;;;;3.97;2.90;;;28.00;90.60;;;;;;5069066;28;20051;-52
2022/08/15 06:49:24;;;;;;;7.00;2.90;;;27.80;90.90;;;;;;5069688;28;20052;-50
2022/08/15 06:52:51;;;;;;;3.92;2.63;;;27.20;91.30;;;;;;5068748;28;20537;-49
2022/08/15 06:55:58;;;;;;;5.93;2.88;;;27.90;91.10;;;;;;5068311;28;20047;-52
2022/08/15 06:59:17;;;;;;;4.25;2.72;;;29.30;89.90;;;;;;5069315;28;20039;-50
2022/08/15 07:02:36;;;;;;;2.90;2.38;;;30.80;87.60;;;;;;5068603;28;20039;-50
2022/08/15 07:05:54;;;;;;;3.08;2.40;;;32.30;84.70;;;;;;5068542;28;20040;-51
2022/08/15 07:09:16;;;;;;;3.60;2.05;;;33.20;82.10;;;;;;5068699;28;20044;-49
2022/08/15 07:12:42;;;;;;;2.50;2.30;;;33.60;80.20;;;;;;5068512;28;20044;-50
2022/08/15 07:16:30;;;;;;;2.88;2.50;;;33.60;79.20;;;;;;5068357;28;20063;-50
2022/08/15 07:19:36;;;;;;;3.47;2.13;;;34.00;78.60;;;;;;5068450;28;20067;-50
2022/08/15 07:22:45;;;;;;;3.70;2.30;;;34.10;78.80;;;;;;5068462;28;20387;-53
2022/08/15 07:25:54;;;;;;;2.38;2.17;;;34.10;78.10;;;;;;5068516;28;20062;-51
2022/08/15 07:29:00;;;;;;;2.60;2.40;;;33.20;79.30;;;;;;5069464;28;20039;-54
2022/08/15 07:32:11;;;;;;;3.17;2.17;;;32.60;81.00;;;;;;5068499;28;20051;-52
2022/08/15 07:35:26;;;;;;;5.38;3.08;;;33.30;80.90;;;;;;5069813;28;20051;-54
2022/08/15 07:38:32;;;;;;;3.30;2.95;;;32.30;81.90;;;;;;5071733;28;20043;-54
2022/08/15 07:41:56;;;;;;;2.90;2.33;;;31.40;84.10;;;;;;5072051;28;20055;-52
2022/08/15 07:45:08;;;;;;;4.28;2.58;;;31.90;84.10;;;;;;5072691;28;20035;-49
2022/08/15 07:48:29;;;;;;;2.80;2.50;;;31.30;84.40;;;;;;5071992;28;20514;-50
2022/08/15 07:51:47;;;;;;;6.35;2.75;;;30.10;88.70;;;;;;5071947;28;20043;-53
2022/08/15 07:55:21;;;;;;;3.83;2.78;;;31.30;88.20;;;;;;5071605;28;20111;-50
2022/08/15 07:58:44;;;;;;;3.70;2.72;;;31.10;88.00;;;;;;5072558;28;20051;-53
2022/08/15 08:01:54;;;;;;;4.88;2.80;;;31.50;87.50;;;;;;5071794;28;20502;-49
2022/08/15 08:05:00;;;;;;;4.35;3.10;;;31.10;89.30;;;;;;5071433;28;20059;-52
2022/08/15 08:08:07;;;;;;;3.17;2.88;;;30.80;90.30;;;;;;5071548;28;20036;-53
2022/08/15 08:11:28;;;;;;;5.47;3.08;;;30.70;90.50;;;;;;5071883;28;20044;-49
2022/08/15 08:14:47;;;;;;;4.28;2.60;;;30.70;90.70;;;;;;5071293;28;20043;-54
2022/08/15 08:18:15;;;;;;;3.33;2.80;;;30.20;91.50;;;;;;5070938;28;20405;-52
2022/08/15 08:21:53;;;;;;;3.50;2.92;;;30.00;91.50;;;;;;5071191;28;20278;-54
2022/08/15 08:25:22;;;;;;;4.25;3.85;;;29.20;92.10;;;;;;5071062;28;20048;-50
2022/08/15 08:28:32;;;;;;;6.55;3.45;;;29.10;93.20;;;;;;5070893;28;20043;-53
2022/08/15 08:35:53;;;;;;;4.68;3.05;;;28.60;93.90;;;;;;5071914;28;20056;-50
2022/08/15 08:39:21;;;;;;;3.38;2.88;;;31.30;91.20;;;;;;5071711;28;20546;-52
2022/08/15 08:42:55;;;;;;;4.55;3.15;;;32.40;90.00;;;;;;5072063;28;20040;-51
2022/08/15 08:46:41;;;;;;;3.80;2.72;;;32.40;89.10;;;;;;5071735;28;20052;-51
2022/08/15 08:49:59;;;;;;;4.63;3.17;;;31.50;90.30;;;;;;5066489;28;20439;-54
2022/08/15 08:53:11;;;;;;;3.45;2.50;;;32.70;88.70;;;;;;5070448;28;20091;-53
2022/08/15 08:56:30;;;;;;;5.97;3.08;;;32.70;88.30;;;;;;5071444;28;20055;-51
2022/08/15 08:59:46;;;;;;;4.97;2.75;;;31.10;91.00;;;;;;5070789;28;20040;-49
2022/08/15 09:03:10;;;;;;;3.65;2.90;;;31.10;91.80;;;;;;5070545;28;20490;-50
2022/08/15 09:06:36;;;;;;;5.05;3.00;;;32.00;90.80;;;;;;5071541;28;20051;-53
2022/08/15 09:09:43;;;;;;;4.60;3.00;;;31.40;90.90;;;;;;5071487;28;20047;-52
2022/08/15 09:16:26;;;;;;;4.13;3.42;;;30.50;91.90;;;;;;5071253;28;20077;-52
2022/08/15 09:19:57;;;;;;;5.47;2.90;;;31.60;91.40;;;;;;5070453;28;20048;-52
2022/08/15 09:23:10;;;;;;;6.88;3.00;;;32.70;90.30;;;;;;5071181;28;20509;-53
2022/08/15 09:26:28;;;;;;;8.57;3.40;;;32.00;90.50;;;;;;5070540;28;20044;-51
2022/08/15 09:29:37;;;;;;;5.70;2.92;;;31.70;91.30;;;;;;5070253;28;20522;-50
2022/08/15 09:33:00;;;;;;;5.80;2.90;;;32.20;90.60;;;;;;5070792;28;20056;-52
2022/08/15 09:36:13;;;;;;;6.28;3.25;;;32.70;90.40;;;;;;5070403;28;20415;-51
2022/08/15 09:39:48;;;;;;;3.70;2.60;;;32.20;90.70;;;;;;5070245;28;20706;-52
2022/08/15 09:43:02;;;;;;;4.68;2.88;;;31.60;91.00;;;;;;5070664;28;20040;-53
2022/08/15 09:50:16;;;;;;;6.57;3.25;;;35.50;86.70;;;;;;5070514;28;20606;-52
2022/08/15 09:54:01;;;;;;;3.17;2.50;;;37.40;83.40;;;;;;5069288;28;20517;-54
2022/08/15 09:57:40;;;;;;;4.90;2.40;;;37.60;81.00;;;;;;5070378;28;20043;-54
2022/08/15 10:00:54;;;;;;;6.60;2.63;;;38.90;79.00;;;;;;5069737;28;20043;-51
2022/08/15 10:04:48;;;;;;;6.72;2.70;;;38.30;78.80;;;;;;5069645;28;20403;-53
2022/08/15 10:08:49;;;;;;;5.75;2.90;;;38.40;78.60;;;;;;5069586;28;20044;-50
2022/08/15 10:11:57;;;;;;;6.75;2.70;;;38.20;78.10;;;;;;5070342;28;20048;-51
2022/08/15 10:15:34;;;;;;;5.85;2.60;;;39.10;77.10;;;;;;5069834;28;20051;-54
2022/08/15 10:22:22;;;;;;;5.90;2.33;;;39.50;75.20;;;;;;5069227;28;20043;-51
2022/08/15 10:25:46;;;;;;;3.38;2.42;;;40.20;74.80;;;;;;5069517;28;20040;-53
2022/08/15 10:29:08;;;;;;;4.20;3.08;;;39.00;73.30;;;;;;5069762;28;20043;-53
2022/08/15 10:32:40;;;;;;;3.47;2.50;;;38.70;75.20;;;;;;5069983;28;20048;-52
2022/08/15 10:35:45;;;;;;;9.02;3.03;;;38.90;75.60;;;;;;5069921;28;20417;-52
2022/08/15 10:39:44;;;;;;;5.82;2.75;;;40.10;73.80;;;;;;5069141;28;20039;-54
2022/08/15 10:42:54;;;;;;;4.18;2.53;;;41.60;72.30;;;;;;5068815;28;20048;-52
2022/08/15 10:46:20;;;;;;;2.58;2.13;;;44.20;69.00;;;;;;5069680;28;20059;-52
2022/08/15 10:50:04;;;;;;;5.55;2.35;;;39.90;70.90;;;;;;5069236;28;20047;-51
2022/08/15 10:53:50;;;;;;;4.75;2.50;;;39.60;71.80;;;;;;5069732;28;20510;-51
2022/08/15 11:00:37;;;;;;;7.45;3.33;;;33.70;79.40;;;;;;5046612;22;20416;-53
2022/08/15 11:03:49;;;;;;;6.18;2.67;;;34.00;82.00;;;;;;4987142;28;20420;-52
2022/08/15 11:07:37;;;;;;;7.40;3.85;;;34.60;81.20;;;;;;4987381;28;20045;-56
2022/08/15 11:10:41;;;;;;;4.25;3.22;;;32.60;82.40;;;;;;4988876;28;20054;-56
2022/08/15 11:13:54;;;;;;;9.30;3.58;;;33.40;83.30;;;;;;4990480;28;20132;-53
2022/08/15 11:17:00;;;;;;;5.65;3.60;;;33.60;83.20;;;;;;4990294;28;20053;-52
2022/08/15 11:20:24;;;;;;;8.23;3.10;;;34.90;81.30;;;;;;4989033;28;20046;-55
2022/08/15 11:23:34;;;;;;;6.45;3.33;;;35.60;79.70;;;;;;4989508;28;20397;-53
2022/08/15 11:26:58;;;;;;;6.07;3.33;;;33.40;81.50;;;;;;4990588;28;20397;-56
2022/08/15 11:30:07;;;;;;;6.03;3.33;;;34.50;81.20;;;;;;4990487;28;20532;-55
2022/08/15 11:33:19;;;;;;;8.60;3.65;;;37.30;77.40;;;;;;4990165;28;20038;-57
2022/08/15 11:36:26;;;;;;;4.50;3.00;;;39.30;74.50;;;;;;4990472;28;20075;-54
2022/08/15 11:39:31;;;;;;;6.40;2.65;;;38.80;74.40;;;;;;4989769;28;20041;-57
2022/08/15 11:42:54;;;;;;;4.75;2.85;;;35.00;77.70;;;;;;4990657;28;20543;-52
2022/08/15 11:46:20;;;;;;;9.18;2.90;;;36.00;78.70;;;;;;4990539;28;20041;-55
2022/08/15 11:49:50;;;;;;;6.07;2.80;;;37.80;76.30;;;;;;4990121;28;20050;-52
2022/08/15 11:53:01;;;;;;;4.80;2.97;;;37.80;75.60;;;;;;4990236;28;20050;-53
2022/08/15 11:59:37;;;;;;;6.20;3.13;;;33.80;80.10;;;;;;4989157;28;20065;-56
2022/08/15 12:03:24;;;;;;;4.57;3.13;;;33.30;83.10;;;;;;4989893;28;20045;-52
2022/08/15 12:06:41;;;;;;;5.30;3.50;;;32.80;85.50;;;;;;4990013;28;20053;-52
2022/08/15 12:10:05;;;;;;;6.30;3.42;;;34.90;82.30;;;;;;4989521;28;20053;-53
2022/08/15 12:13:15;;;;;;;7.22;3.42;;;33.80;83.20;;;;;;4990067;28;20046;-52
2022/08/15 12:16:39;;;;;;;9.15;3.28;;;34.20;83.90;;;;;;4989505;28;20049;-56
2022/08/15 12:19:50;;;;;;;11.15;4.22;;;36.10;79.80;;;;;;4989596;28;20045;-54
2022/08/15 12:22:54;;;;;;;5.93;3.20;;;33.60;82.20;;;;;;4989383;28;20042;-54
2022/08/15 12:26:01;;;;;;;7.30;3.63;;;35.30;81.40;;;;;;4990358;28;20049;-55
2022/08/15 12:29:05;;;;;;;8.57;3.30;;;35.10;81.10;;;;;;4977729;28;20050;-57
2022/08/15 12:32:12;;;;;;;6.90;3.72;;;34.70;82.50;;;;;;4988792;28;20049;-52
2022/08/15 12:35:16;;;;;;;7.00;3.42;;;37.50;78.30;;;;;;4989764;28;20065;-53
2022/08/15 12:38:19;;;;;;;11.18;3.17;;;36.90;78.40;;;;;;4988951;28;20049;-56
2022/08/15 12:41:25;;;;;;;5.22;3.05;;;36.90;77.50;;;;;;4989265;28;20049;-55
2022/08/15 12:44:34;;;;;;;9.93;3.42;;;36.90;79.40;;;;;;4989527;28;20298;-52
2022/08/15 12:47:40;;;;;;;9.15;2.95;;;39.20;75.10;;;;;;4989604;28;20045;-54
2022/08/15 12:50:45;;;;;;;5.60;2.60;;;40.00;73.70;;;;;;4988939;28;20405;-54
2022/08/15 12:54:08;;;;;;;8.57;3.30;;;39.70;72.90;;;;;;4989201;28;20412;-56
2022/08/15 12:57:30;;;;;;;5.60;3.00;;;39.20;74.70;;;;;;4989280;28;20049;-54
2022/08/15 13:00:35;;;;;;;6.55;3.00;;;39.20;73.30;;;;;;4988437;28;20041;-53
2022/08/15 13:03:42;;;;;;;8.27;3.33;;;39.30;73.20;;;;;;4988212;28;20405;-53
2022/08/15 13:06:48;;;;;;;6.38;3.22;;;38.50;73.50;;;;;;4989215;28;20403;-54
2022/08/15 13:10:11;;;;;;;6.55;3.45;;;37.40;75.40;;;;;;4989111;28;20057;-55
2022/08/15 13:13:16;;;;;;;9.80;3.70;;;36.50;76.30;;;;;;4988905;28;20069;-56
2022/08/15 13:16:21;;;;;;;9.43;3.72;;;35.00;76.70;;;;;;4988566;28;20054;-57
2022/08/15 13:26:19;;;;;;;6.82;3.40;;;33.40;80.90;;;;;;4988757;28;20042;-51
2022/08/15 13:29:23;;;;;;;12.18;4.22;;;34.50;78.70;;;;;;4988608;28;20050;-53
2022/08/15 13:32:28;;;;;;;8.27;4.57;;;35.00;79.20;;;;;;4988146;28;20511;-50
2022/08/15 13:35:51;;;;;;;7.78;3.53;;;35.50;79.30;;;;;;4987752;28;20073;-56
2022/08/15 13:38:56;;;;;;;5.32;3.25;;;35.70;77.80;;;;;;4988719;28;20054;-53
2022/08/15 13:42:19;;;;;;;8.82;3.75;;;35.90;77.60;;;;;;4987812;28;20072;-54
2022/08/15 13:45:23;;;;;;;8.02;3.88;;;35.10;78.00;;;;;;4988370;28;20041;-52
2022/08/15 13:48:41;;;;;;;8.60;4.00;;;34.70;78.40;;;;;;4988656;28;20392;-56
2022/08/15 13:52:23;;;;;;;11.95;4.00;;;35.00;78.70;;;;;;4987939;28;20050;-57
2022/08/15 13:55:27;;;;;;;7.40;4.13;;;35.20;78.20;;;;;;4987991;28;20069;-54
2022/08/15 13:58:31;;;;;;;8.63;3.60;;;35.50;77.40;;;;;;4988354;28;20049;-55
2022/08/15 14:01:35;;;;;;;10.05;3.75;;;35.20;77.20;;;;;;4987657;28;20053;-55
2022/08/15 14:04:40;;;;;;;12.95;4.20;;;34.30;78.20;;;;;;4987714;28;20045;-52
2022/08/15 14:08:03;;;;;;;7.53;3.42;;;32.90;79.90;;;;;;4987908;28;20404;-54
2022/08/15 14:11:07;;;;;;;5.47;3.10;;;33.60;79.70;;;;;;4987821;28;20053;-55
2022/08/15 14:14:11;;;;;;;7.47;3.58;;;34.40;78.60;;;;;;4987876;28;20516;-53
2022/08/15 14:17:16;;;;;;;10.35;4.05;;;34.70;78.20;;;;;;4987488;28;20057;-55
2022/08/15 14:23:45;;;;;;;8.35;3.53;;;33.90;79.20;;;;;;4987883;28;20049;-56
2022/08/15 14:26:50;;;;;;;7.80;3.88;;;34.00;78.90;;;;;;4987981;28;20045;-53
2022/08/15 14:29:54;;;;;;;6.78;3.67;;;33.40;79.40;;;;;;4987671;28;20053;-53
2022/08/15 14:33:00;;;;;;;7.72;3.85;;;32.40;81.40;;;;;;4987763;28;20428;-53
2022/08/15 14:36:06;;;;;;;8.98;3.85;;;32.70;80.80;;;;;;4988083;28;20049;-53
2022/08/15 14:39:12;;;;;;;11.95;3.85;;;32.70;81.50;;;;;;4987838;28;20053;-53
2022/08/15 14:42:17;;;;;;;5.95;3.55;;;32.70;80.50;;;;;;4987505;28;20061;-52
2022/08/15 14:45:23;;;;;;;8.10;3.70;;;32.40;80.50;;;;;;4986925;28;20050;-55
2022/08/15 14:48:30;;;;;;;7.78;3.70;;;32.20;81.30;;;;;;4975660;28;20058;-56
2022/08/15 14:51:37;;;;;;;6.15;3.90;;;31.80;82.20;;;;;;4987593;28;20057;-52
2022/08/15 14:54:41;;;;;;;10.30;3.75;;;31.30;83.30;;;;;;4987269;28;20045;-53
2022/08/15 14:57:45;;;;;;;9.10;4.03;;;31.00;85.10;;;;;;4987460;28;20053;-56
2022/08/15 15:00:49;;;;;;;14.77;4.18;;;30.80;87.00;;;;;;4986651;28;20050;-53
2022/08/15 15:04:13;;;;;;;7.53;4.05;;;30.60;90.00;;;;;;4987091;28;20539;-52
2022/08/15 15:07:37;;;;;;;7.72;3.80;;;30.30;90.00;;;;;;4987382;28;20401;-52
2022/08/15 15:10:41;;;;;;;8.48;4.10;;;30.10;89.00;;;;;;4987273;28;20055;-54
2022/08/15 15:13:47;;;;;;;9.73;4.07;;;29.80;89.00;;;;;;4986841;28;20049;-55
2022/08/15 15:16:52;;;;;;;11.23;4.65;;;29.80;89.50;;;;;;4987064;28;20057;-56
2022/08/15 15:23:18;;;;;;;6.68;4.05;;;29.30;90.30;;;;;;4986726;28;20049;-51
2022/08/15 15:26:23;;;;;;;8.90;4.07;;;29.30;90.90;;;;;;4987125;28;20342;-52
2022/08/15 15:29:46;;;;;;;8.32;4.22;;;29.20;91.20;;;;;;4987099;28;20054;-52
2022/08/15 15:32:50;;;;;;;8.98;4.22;;;29.10;90.80;;;;;;4986595;28;20042;-54
2022/08/15 15:35:56;;;;;;;10.95;4.93;;;28.80;91.40;;;;;;4987268;28;20508;-52
2022/08/15 15:42:35;;;;;;;13.73;4.75;;;28.70;95.10;;;;;;4987007;28;20053;-54
2022/08/15 15:45:41;;;;;;;10.13;5.40;;;28.30;98.40;;;;;;4986338;28;20076;-54
2022/08/15 15:48:49;;;;;;;11.20;5.18;;;27.70;99.90;;;;;;4987211;28;20065;-54
2022/08/15 15:51:53;;;;;;;9.55;5.78;;;27.30;99.90;;;;;;4986702;28;20038;-52
2022/08/15 15:54:58;;;;;;;16.90;6.40;;;26.90;99.90;;;;;;4986495;28;20053;-52
2022/08/15 15:58:02;;;;;;;16.67;6.32;;;26.40;99.90;;;;;;4989137;28;20054;-51
2022/08/15 16:15:36;;;;;;;13.65;6.70;;;26.50;99.90;;;;;;4989748;28;20033;-51
2022/08/15 16:19:07;;;;;;;10.65;5.65;;;27.00;99.90;;;;;;4989829;28;20400;-52
2022/08/15 16:22:21;;;;;;;11.82;5.88;;;27.00;99.90;;;;;;4989949;28;20046;-52
2022/08/15 16:25:39;;;;;;;12.57;5.60;;;27.10;99.90;;;;;;4989434;28;20053;-53
2022/08/15 16:29:13;;;;;;;11.77;5.20;;;27.30;99.90;;;;;;4989448;28;20409;-51
2022/08/15 16:33:00;;;;;;;8.50;4.90;;;27.30;99.90;;;;;;4989609;28;20046;-56
2022/08/15 16:36:06;;;;;;;11.23;5.88;;;26.80;99.90;;;;;;4989520;28;20041;-51
2022/08/15 16:39:35;;;;;;;14.85;6.30;;;26.70;99.90;;;;;;4988489;28;20042;-51
2022/08/15 16:42:46;;;;;;;9.50;6.10;;;26.80;99.90;;;;;;4988988;28;20053;-56
2022/08/15 16:46:12;;;;;;;11.52;6.05;;;26.30;99.90;;;;;;4989021;28;20038;-50
2022/08/15 16:49:41;;;;;;;10.75;5.75;;;26.00;99.90;;;;;;4989271;28;20049;-54
2022/08/15 16:53:15;;;;;;;18.60;6.72;;;25.90;99.90;;;;;;4989442;28;20117;-55
2022/08/15 16:56:26;;;;;;;16.00;5.45;;;25.60;99.90;;;;;;4989278;28;20528;-53
2022/08/15 16:59:52;;;;;;;10.95;5.05;;;25.20;99.90;;;;;;4988705;28;20053;-55
2022/08/15 17:03:06;;;;;;;12.65;5.30;;;24.90;99.90;;;;;;5069355;22;20538;-44
2022/08/15 17:06:31;;;;;;;9.48;5.07;;;24.80;99.90;;;;;;5071367;28;20043;-44
2022/08/15 17:09:38;;;;;;;14.00;5.10;;;24.90;99.90;;;;;;5070565;28;20044;-48
2022/08/15 17:13:31;;;;;;;9.48;5.28;;;24.90;99.90;;;;;;5070783;28;20435;-49
2022/08/15 17:16:48;;;;;;;10.40;5.20;;;24.90;99.90;;;;;;5071132;28;20966;-45
2022/08/15 17:20:14;;;;;;;14.07;5.35;;;24.90;99.90;;;;;;5070444;28;20059;-51
2022/08/15 17:23:33;;;;;;;11.93;5.25;;;24.70;99.90;;;;;;5059442;28;20433;-49
2022/08/15 17:26:43;;;;;;;9.95;5.30;;;24.40;99.90;;;;;;5070994;28;20051;-46
2022/08/15 17:30:14;;;;;;;16.10;6.35;;;24.40;99.90;;;;;;5070931;28;20406;-48
2022/08/15 17:33:27;;;;;;;12.65;5.35;;;24.30;99.90;;;;;;5070699;28;20040;-46
2022/08/15 17:36:31;;;;;;;11.65;5.25;;;24.40;99.90;;;;;;5069895;28;20403;-51
2022/08/15 17:39:44;;;;;;;11.43;5.07;;;24.40;99.90;;;;;;5069908;28;20059;-46
2022/08/15 17:43:07;;;;;;;11.20;4.85;;;24.20;99.90;;;;;;5070355;28;20047;-45
2022/08/15 17:46:32;;;;;;;10.15;5.03;;;24.10;99.90;;;;;;5070270;28;20052;-46
2022/08/15 17:49:40;;;;;;;9.95;5.43;;;23.70;99.90;;;;;;5070554;28;20047;-45
2022/08/15 17:52:55;;;;;;;12.25;5.07;;;23.30;99.90;;;;;;5070267;28;20420;-48
2022/08/15 17:56:14;;;;;;;15.90;5.00;;;23.20;99.90;;;;;;5069860;28;20047;-48
2022/08/15 17:59:48;;;;;;;12.93;5.40;;;23.10;99.90;;;;;;5070354;28;20059;-47
2022/08/15 18:02:58;;;;;;;13.30;6.45;;;22.60;99.90;;;;;;5069494;28;20514;-44
2022/08/15 18:06:22;;;;;;;12.88;5.78;;;21.80;99.90;;;;;;5070130;28;20043;-50
2022/08/15 19:08:28;;;;;;;14.23;7.20;;;18.00;99.90;;;;;;5050029;28;20396;-50
2022/08/15 20:08:56;;;;;;;17.50;9.73;;;17.60;99.90;;;;;;5055345;28;20036;-45
2022/08/15 20:26:28;;;;;;;9.95;6.75;;;17.90;99.90;;;;;;5053371;28;20032;-46
2022/08/15 20:30:09;;;;;;;13.63;6.82;;;17.90;99.90;;;;;;5052310;28;20411;-48
2022/08/15 20:33:32;;;;;;;14.82;6.05;;;17.90;99.90;;;;;;5052095;28;20283;-51